createdAt,value
2017-09-17T00:00:32.076Z,0
2017-09-17T00:01:32.827Z,0
2017-09-17T00:02:33.617Z,0
2017-09-17T00:03:34.364Z,0
2017-09-17T00:04:35.124Z,0
2017-09-17T00:05:35.910Z,0
2017-09-17T00:06:36.601Z,0
2017-09-17T00:07:37.329Z,0
2017-09-17T00:08:38.144Z,0
2017-09-17T00:09:38.848Z,0
2017-09-17T00:10:39.625Z,0
2017-09-17T00:11:40.332Z,0
2017-09-17T00:12:41.087Z,0
2017-09-17T00:13:41.855Z,0
2017-09-17T00:14:42.615Z,0
2017-09-17T00:15:43.757Z,0
2017-09-17T00:16:44.486Z,0
2017-09-17T00:17:45.384Z,0
2017-09-17T00:18:46.133Z,0
2017-09-17T00:19:46.911Z,0
2017-09-17T00:20:47.678Z,0
2017-09-17T00:21:48.395Z,0
2017-09-17T00:22:49.230Z,0
2017-09-17T00:23:50.173Z,0
2017-09-17T00:24:50.852Z,0
2017-09-17T00:25:51.574Z,0
2017-09-17T00:26:52.332Z,0
2017-09-17T00:27:53.145Z,0
2017-09-17T00:28:53.837Z,0
2017-09-17T00:29:54.547Z,0
2017-09-17T00:30:55.287Z,0
2017-09-17T00:31:56.014Z,0
2017-09-17T00:32:56.752Z,0
2017-09-17T00:33:57.581Z,0
2017-09-17T00:34:58.392Z,0
2017-09-17T00:35:59.150Z,0
2017-09-17T00:36:59.932Z,0
2017-09-17T00:38:00.712Z,0
2017-09-17T00:39:01.468Z,0
2017-09-17T00:40:02.168Z,0
2017-09-17T00:41:05.187Z,0
2017-09-17T00:42:06.941Z,0
2017-09-17T00:43:07.633Z,0
2017-09-17T00:44:08.429Z,0
2017-09-17T00:45:09.206Z,0
2017-09-17T00:46:09.951Z,0
2017-09-17T00:47:10.760Z,0
2017-09-17T00:48:11.424Z,0
2017-09-17T00:49:12.148Z,0
2017-09-17T00:50:13.020Z,0
2017-09-17T00:51:13.698Z,0
2017-09-17T00:52:14.540Z,0
2017-09-17T00:53:15.285Z,0
2017-09-17T00:54:16.052Z,0
2017-09-17T00:55:16.811Z,0
2017-09-17T00:56:17.637Z,0
2017-09-17T00:57:18.350Z,0
2017-09-17T00:58:19.097Z,0
2017-09-17T00:59:19.881Z,0
2017-09-17T01:00:20.654Z,0
2017-09-17T01:01:21.363Z,0
2017-09-17T01:02:22.106Z,0
2017-09-17T01:03:25.078Z,0
2017-09-17T01:04:25.844Z,0
2017-09-17T01:05:26.732Z,0
2017-09-17T01:06:27.838Z,0
2017-09-17T01:07:28.605Z,0
2017-09-17T01:08:29.342Z,0
2017-09-17T01:09:30.118Z,0
2017-09-17T01:10:30.806Z,0
2017-09-17T01:11:31.568Z,0
2017-09-17T01:12:32.402Z,0
2017-09-17T01:13:33.099Z,0
2017-09-17T01:14:33.807Z,0
2017-09-17T01:15:34.542Z,0
2017-09-17T01:16:35.334Z,0
2017-09-17T01:17:35.981Z,0
2017-09-17T01:18:36.778Z,0
2017-09-17T01:19:37.603Z,0
2017-09-17T01:20:38.350Z,0
2017-09-17T01:21:39.074Z,0
2017-09-17T01:22:39.903Z,0
2017-09-17T01:23:40.613Z,0
2017-09-17T01:24:41.375Z,0
2017-09-17T01:25:42.166Z,0
2017-09-17T01:26:42.806Z,0
2017-09-17T01:27:43.525Z,0
2017-09-17T01:28:44.257Z,0
2017-09-17T01:29:44.974Z,0
2017-09-17T01:30:45.928Z,0
2017-09-17T01:31:46.690Z,0
2017-09-17T01:32:47.390Z,0
2017-09-17T01:33:48.130Z,0
2017-09-17T01:34:48.884Z,0
2017-09-17T01:35:55.902Z,0
2017-09-17T01:36:57.638Z,0
2017-09-17T01:37:58.388Z,0
2017-09-17T01:38:59.148Z,0
2017-09-17T01:40:02.913Z,0
2017-09-17T01:41:04.604Z,0
2017-09-17T01:42:05.414Z,0
2017-09-17T01:43:06.186Z,0
2017-09-17T01:44:06.925Z,0
2017-09-17T01:45:07.704Z,0
2017-09-17T01:46:08.501Z,0
2017-09-17T01:47:09.154Z,0
2017-09-17T01:48:09.900Z,0
2017-09-17T01:49:10.733Z,0
2017-09-17T01:50:11.505Z,0
2017-09-17T01:51:12.212Z,0
2017-09-17T01:52:12.934Z,0
2017-09-17T01:53:13.677Z,0
2017-09-17T01:54:14.411Z,0
2017-09-17T01:55:15.248Z,0
2017-09-17T01:56:15.960Z,0
2017-09-17T01:57:16.699Z,0
2017-09-17T01:58:17.458Z,0
2017-09-17T01:59:18.160Z,0
2017-09-17T02:00:20.320Z,0
2017-09-17T02:01:21.124Z,0
2017-09-17T02:02:21.851Z,0
2017-09-17T02:03:22.579Z,0
2017-09-17T02:04:23.332Z,0
2017-09-17T02:05:24.110Z,0
2017-09-17T02:06:24.808Z,0
2017-09-17T02:07:25.557Z,0
2017-09-17T02:08:26.268Z,0
2017-09-17T02:09:27.003Z,0
2017-09-17T02:10:27.765Z,0
2017-09-17T02:11:28.503Z,0
2017-09-17T02:12:29.206Z,0
2017-09-17T02:13:29.899Z,0
2017-09-17T02:14:30.629Z,0
2017-09-17T02:15:31.398Z,0
2017-09-17T02:16:32.050Z,0
2017-09-17T02:17:32.750Z,0
2017-09-17T02:18:33.490Z,0
2017-09-17T02:19:34.187Z,0
2017-09-17T02:20:34.999Z,0
2017-09-17T02:21:35.754Z,0
2017-09-17T02:22:36.478Z,0
2017-09-17T02:23:37.274Z,0
2017-09-17T02:24:38.020Z,0
2017-09-17T02:25:38.735Z,0
2017-09-17T02:26:39.493Z,0
2017-09-17T02:27:40.244Z,0
2017-09-17T02:28:41.002Z,0
2017-09-17T02:29:44.630Z,0
2017-09-17T02:30:46.539Z,0
2017-09-17T02:31:47.210Z,0
2017-09-17T02:32:47.952Z,0
2017-09-17T02:33:48.677Z,0
2017-09-17T02:34:49.424Z,0
2017-09-17T02:35:50.160Z,0
2017-09-17T02:36:50.893Z,0
2017-09-17T02:37:51.617Z,0
2017-09-17T02:38:52.366Z,0
2017-09-17T02:39:53.122Z,0
2017-09-17T02:40:53.859Z,0
2017-09-17T02:41:54.661Z,0
2017-09-17T02:42:55.404Z,0
2017-09-17T02:43:56.097Z,0
2017-09-17T02:44:56.886Z,0
2017-09-17T02:45:57.600Z,0
2017-09-17T02:46:58.317Z,0
2017-09-17T02:47:59.065Z,0
2017-09-17T02:48:59.767Z,0
2017-09-17T02:50:00.464Z,0
2017-09-17T02:51:01.231Z,0
2017-09-17T02:52:01.943Z,0
2017-09-17T02:53:02.652Z,0
2017-09-17T02:54:03.372Z,0
2017-09-17T02:55:04.108Z,0
2017-09-17T02:56:04.761Z,0
2017-09-17T02:57:05.557Z,0
2017-09-17T02:58:06.252Z,0
2017-09-17T02:59:07.009Z,0
2017-09-17T03:00:07.733Z,0
2017-09-17T03:01:08.535Z,0
2017-09-17T03:02:09.246Z,0
2017-09-17T03:03:09.965Z,0
2017-09-17T03:04:10.771Z,0
2017-09-17T03:05:11.477Z,0
2017-09-17T03:06:12.217Z,0
2017-09-17T03:07:12.906Z,0
2017-09-17T03:08:13.620Z,0
2017-09-17T03:09:14.340Z,0
2017-09-17T03:10:14.999Z,0
2017-09-17T03:11:15.775Z,0
2017-09-17T03:12:16.530Z,0
2017-09-17T03:13:17.209Z,0
2017-09-17T03:14:17.974Z,0
2017-09-17T03:15:18.783Z,0
2017-09-17T03:16:19.539Z,0
2017-09-17T03:17:20.233Z,0
2017-09-17T03:18:20.977Z,0
2017-09-17T03:19:21.703Z,0
2017-09-17T03:20:22.496Z,0
2017-09-17T03:21:23.301Z,0
2017-09-17T03:22:24.019Z,0
2017-09-17T03:23:24.727Z,0
2017-09-17T03:24:25.466Z,0
2017-09-17T03:25:26.235Z,0
2017-09-17T03:26:27.091Z,0
2017-09-17T03:27:27.801Z,0
2017-09-17T03:28:28.607Z,0
2017-09-17T03:29:29.326Z,0
2017-09-17T03:30:30.101Z,0
2017-09-17T03:31:30.863Z,0
2017-09-17T03:32:31.600Z,0
2017-09-17T03:33:32.311Z,0
2017-09-17T03:34:33.082Z,0
2017-09-17T03:35:33.825Z,0
2017-09-17T03:36:34.639Z,0
2017-09-17T03:37:35.331Z,0
2017-09-17T03:38:36.064Z,0
2017-09-17T03:39:36.772Z,0
2017-09-17T03:40:37.444Z,0
2017-09-17T03:41:38.251Z,0
2017-09-17T03:42:38.949Z,0
2017-09-17T03:43:39.650Z,0
2017-09-17T03:44:40.370Z,0
2017-09-17T03:45:41.106Z,0
2017-09-17T03:46:41.845Z,0
2017-09-17T03:47:42.610Z,0
2017-09-17T03:48:43.381Z,0
2017-09-17T03:49:44.134Z,0
2017-09-17T03:50:44.976Z,0
2017-09-17T03:51:45.670Z,0
2017-09-17T03:52:46.376Z,0
2017-09-17T03:53:47.139Z,0
2017-09-17T03:54:47.870Z,0
2017-09-17T03:55:48.677Z,0
2017-09-17T03:56:49.384Z,0
2017-09-17T03:57:50.142Z,0
2017-09-17T03:58:50.878Z,0
2017-09-17T03:59:51.605Z,0
2017-09-17T04:00:52.334Z,0
2017-09-17T04:01:53.151Z,0
2017-09-17T04:02:53.881Z,0
2017-09-17T04:03:54.645Z,0
2017-09-17T04:04:55.408Z,0
2017-09-17T04:05:56.159Z,0
2017-09-17T04:06:57.216Z,0
2017-09-17T04:07:57.940Z,0
2017-09-17T04:08:58.671Z,0
2017-09-17T04:09:59.456Z,0
2017-09-17T04:11:00.139Z,0
2017-09-17T04:12:00.890Z,0
2017-09-17T04:13:01.628Z,0
2017-09-17T04:14:02.368Z,0
2017-09-17T04:15:03.123Z,0
2017-09-17T04:16:03.880Z,0
2017-09-17T04:17:04.668Z,0
2017-09-17T04:18:05.390Z,0
2017-09-17T04:19:06.077Z,0
2017-09-17T04:20:06.831Z,0
2017-09-17T04:21:07.562Z,0
2017-09-17T04:22:08.336Z,0
2017-09-17T04:23:09.059Z,0
2017-09-17T04:24:09.782Z,0
2017-09-17T04:25:10.549Z,0
2017-09-17T04:26:11.270Z,0
2017-09-17T04:27:11.969Z,0
2017-09-17T04:28:12.824Z,0
2017-09-17T04:29:13.556Z,0
2017-09-17T04:30:14.288Z,0
2017-09-17T04:31:15.017Z,0
2017-09-17T04:32:15.776Z,0
2017-09-17T04:33:16.544Z,4
2017-09-17T04:34:17.275Z,0
2017-09-17T04:35:18.093Z,0
2017-09-17T04:36:18.825Z,0
2017-09-17T04:37:19.731Z,4
2017-09-17T04:38:20.464Z,4
2017-09-17T04:39:21.160Z,0
2017-09-17T04:40:22.005Z,4
2017-09-17T04:41:22.755Z,4
2017-09-17T04:42:23.486Z,0
2017-09-17T04:43:24.238Z,4
2017-09-17T04:44:25.061Z,4
2017-09-17T04:45:25.750Z,4
2017-09-17T04:46:26.484Z,4
2017-09-17T04:47:27.268Z,4
2017-09-17T04:48:28.009Z,4
2017-09-17T04:49:28.758Z,8
2017-09-17T04:50:29.541Z,4
2017-09-17T04:51:30.283Z,8
2017-09-17T04:52:31.059Z,8
2017-09-17T04:53:31.796Z,8
2017-09-17T04:54:32.528Z,12
2017-09-17T04:55:33.303Z,8
2017-09-17T04:56:34.046Z,12
2017-09-17T04:57:34.878Z,12
2017-09-17T04:58:35.569Z,12
2017-09-17T04:59:36.306Z,12
2017-09-17T05:00:37.137Z,12
2017-09-17T05:01:37.853Z,16
2017-09-17T05:02:38.655Z,16
2017-09-17T05:03:39.477Z,16
2017-09-17T05:04:40.204Z,20
2017-09-17T05:05:40.945Z,20
2017-09-17T05:06:41.671Z,20
2017-09-17T05:07:42.439Z,24
2017-09-17T05:08:43.153Z,20
2017-09-17T05:09:43.890Z,20
2017-09-17T05:10:44.643Z,24
2017-09-17T05:11:45.380Z,24
2017-09-17T05:12:46.100Z,24
2017-09-17T05:13:46.858Z,28
2017-09-17T05:14:47.594Z,28
2017-09-17T05:15:48.404Z,32
2017-09-17T05:16:49.092Z,28
2017-09-17T05:17:49.909Z,32
2017-09-17T05:18:50.638Z,32
2017-09-17T05:19:51.414Z,32
2017-09-17T05:20:52.079Z,36
2017-09-17T05:21:52.811Z,36
2017-09-17T05:22:53.552Z,36
2017-09-17T05:23:54.266Z,40
2017-09-17T05:24:54.967Z,44
2017-09-17T05:25:55.746Z,40
2017-09-17T05:26:56.518Z,44
2017-09-17T05:27:57.318Z,44
2017-09-17T05:28:58.106Z,48
2017-09-17T05:29:58.798Z,52
2017-09-17T05:30:59.579Z,52
2017-09-17T05:32:00.320Z,56
2017-09-17T05:33:01.123Z,60
2017-09-17T05:34:01.840Z,56
2017-09-17T05:35:02.623Z,60
2017-09-17T05:36:03.344Z,64
2017-09-17T05:37:04.076Z,68
2017-09-17T05:38:04.816Z,68
2017-09-17T05:39:05.519Z,76
2017-09-17T05:40:06.290Z,76
2017-09-17T05:41:07.070Z,84
2017-09-17T05:42:07.775Z,88
2017-09-17T05:43:08.584Z,96
2017-09-17T05:44:09.246Z,96
2017-09-17T05:45:10.064Z,104
2017-09-17T05:46:10.791Z,108
2017-09-17T05:47:11.551Z,116
2017-09-17T05:48:12.272Z,120
2017-09-17T05:49:13.073Z,124
2017-09-17T05:50:13.793Z,128
2017-09-17T05:51:14.559Z,136
2017-09-17T05:52:15.345Z,140
2017-09-17T05:53:16.062Z,148
2017-09-17T05:54:16.816Z,152
2017-09-17T05:55:17.604Z,160
2017-09-17T05:56:18.346Z,160
2017-09-17T05:57:19.100Z,172
2017-09-17T05:58:19.827Z,180
2017-09-17T05:59:20.579Z,184
2017-09-17T06:00:21.433Z,192
2017-09-17T06:01:22.104Z,196
2017-09-17T06:02:22.864Z,204
2017-09-17T06:03:23.664Z,212
2017-09-17T06:04:24.374Z,216
2017-09-17T06:05:25.134Z,216
2017-09-17T06:06:25.881Z,224
2017-09-17T06:07:26.603Z,232
2017-09-17T06:08:27.354Z,240
2017-09-17T06:09:28.048Z,244
2017-09-17T06:10:28.890Z,252
2017-09-17T06:11:29.594Z,264
2017-09-17T06:12:30.335Z,264
2017-09-17T06:13:31.141Z,264
2017-09-17T06:14:31.821Z,268
2017-09-17T06:16:33.559Z,280
2017-09-17T06:17:34.288Z,284
2017-09-17T06:18:35.052Z,288
2017-09-17T06:19:35.816Z,288
2017-09-17T06:20:36.603Z,288
2017-09-17T06:21:37.254Z,292
2017-09-17T06:22:38.009Z,296
2017-09-17T06:23:38.850Z,296
2017-09-17T06:24:39.613Z,296
2017-09-17T06:25:40.363Z,292
2017-09-17T06:26:41.087Z,296
2017-09-17T06:27:41.837Z,292
2017-09-17T06:28:42.587Z,292
2017-09-17T06:29:43.362Z,292
2017-09-17T06:30:44.197Z,296
2017-09-17T06:31:44.975Z,296
2017-09-17T06:32:45.711Z,304
2017-09-17T06:33:46.495Z,304
2017-09-17T06:34:47.268Z,308
2017-09-17T06:35:48.021Z,312
2017-09-17T06:36:48.788Z,316
2017-09-17T06:37:49.474Z,324
2017-09-17T06:38:50.203Z,332
2017-09-17T06:39:50.935Z,344
2017-09-17T06:40:51.658Z,360
2017-09-17T06:41:52.391Z,372
2017-09-17T06:42:53.120Z,388
2017-09-17T06:43:53.832Z,396
2017-09-17T06:44:54.551Z,408
2017-09-17T06:45:55.331Z,424
2017-09-17T06:46:56.254Z,448
2017-09-17T06:47:56.983Z,476
2017-09-17T06:48:57.723Z,512
2017-09-17T06:49:58.579Z,560
2017-09-17T06:50:59.273Z,624
2017-09-17T06:52:00.061Z,696
2017-09-17T06:53:00.787Z,740
2017-09-17T06:54:01.807Z,816
2017-09-17T06:55:02.522Z,876
2017-09-17T06:56:03.251Z,936
2017-09-17T06:57:04.182Z,1012
2017-09-17T06:58:05.099Z,1020
2017-09-17T06:59:05.844Z,1012
2017-09-17T07:00:06.577Z,940
2017-09-17T07:01:07.499Z,920
2017-09-17T07:02:08.305Z,880
2017-09-17T07:03:09.087Z,956
2017-09-17T07:04:10.245Z,932
2017-09-17T07:05:11.085Z,1004
2017-09-17T07:06:11.851Z,1076
2017-09-17T07:07:12.776Z,1132
2017-09-17T07:08:13.593Z,1060
2017-09-17T07:09:14.427Z,1012
2017-09-17T07:10:15.250Z,960
2017-09-17T07:11:16.052Z,992
2017-09-17T07:12:17.047Z,1052
2017-09-17T07:13:17.872Z,1064
2017-09-17T07:14:18.874Z,1112
2017-09-17T07:15:19.623Z,1056
2017-09-17T07:16:20.391Z,1024
2017-09-17T07:17:21.183Z,1036
2017-09-17T07:18:21.898Z,1124
2017-09-17T07:19:22.776Z,1260
2017-09-17T07:20:23.587Z,1392
2017-09-17T07:21:24.340Z,1640
2017-09-17T07:22:25.311Z,1696
2017-09-17T07:23:27.058Z,1860
2017-09-17T07:24:28.026Z,1808
2017-09-17T07:25:29.788Z,2228
2017-09-17T07:26:30.739Z,3748
2017-09-17T07:27:34.493Z,4712
2017-09-17T07:28:35.208Z,5844
2017-09-17T07:29:36.038Z,4124
2017-09-17T07:30:36.868Z,2716
2017-09-17T07:31:37.553Z,2604
2017-09-17T07:32:38.356Z,2364
2017-09-17T07:33:39.058Z,2228
2017-09-17T07:34:39.962Z,2288
2017-09-17T07:35:40.617Z,2384
2017-09-17T07:36:41.470Z,2456
2017-09-17T07:37:42.244Z,2528
2017-09-17T07:38:43.459Z,2500
2017-09-17T07:39:44.186Z,2392
2017-09-17T07:40:44.989Z,2456
2017-09-17T07:41:45.712Z,2588
2017-09-17T07:42:46.483Z,2672
2017-09-17T07:43:47.238Z,2704
2017-09-17T07:44:47.950Z,3992
2017-09-17T07:45:48.809Z,4264
2017-09-17T07:46:49.662Z,3508
2017-09-17T07:47:50.387Z,4176
2017-09-17T07:48:51.149Z,4472
2017-09-17T07:49:52.040Z,3036
2017-09-17T07:50:52.698Z,3400
2017-09-17T07:51:53.505Z,4536
2017-09-17T07:52:54.427Z,6672
2017-09-17T07:53:55.189Z,5704
2017-09-17T07:54:56.277Z,3796
2017-09-17T07:55:57.321Z,4344
2017-09-17T07:56:58.062Z,3828
2017-09-17T07:57:59.156Z,7452
2017-09-17T07:59:00.263Z,26240
2017-09-17T08:00:01.297Z,27360
2017-09-17T08:01:02.078Z,28160
2017-09-17T08:02:02.798Z,11856
2017-09-17T08:03:03.623Z,24288
2017-09-17T08:04:04.390Z,22112
2017-09-17T08:05:05.141Z,32512
2017-09-17T08:06:05.816Z,26848
2017-09-17T08:07:06.840Z,39168
2017-09-17T08:08:07.574Z,44768
2017-09-17T08:09:08.359Z,24480
2017-09-17T08:10:09.109Z,31712
2017-09-17T08:11:09.860Z,46720
2017-09-17T08:12:10.651Z,49216
2017-09-17T08:13:11.558Z,29696
2017-09-17T08:14:12.245Z,11556
2017-09-17T08:15:13.122Z,49312
2017-09-17T08:16:13.784Z,35648
2017-09-17T08:17:14.544Z,27904
2017-09-17T08:18:15.317Z,3476
2017-09-17T08:19:16.032Z,3092
2017-09-17T08:20:16.843Z,2792
2017-09-17T08:21:17.684Z,2192
2017-09-17T08:22:18.394Z,2088
2017-09-17T08:23:19.199Z,2000
2017-09-17T08:24:19.890Z,1984
2017-09-17T08:25:20.638Z,2072
2017-09-17T08:26:21.340Z,2432
2017-09-17T08:27:22.089Z,2488
2017-09-17T08:28:22.813Z,2320
2017-09-17T08:29:23.548Z,2312
2017-09-17T08:30:24.359Z,2420
2017-09-17T08:31:25.118Z,2636
2017-09-17T08:32:25.935Z,2604
2017-09-17T08:33:26.709Z,2380
2017-09-17T08:34:27.944Z,2168
2017-09-17T08:35:29.457Z,1896
2017-09-17T08:36:30.209Z,1892
2017-09-17T08:37:30.954Z,1864
2017-09-17T08:38:31.684Z,1880
2017-09-17T08:39:32.474Z,1892
2017-09-17T08:49:55.350Z,1320
2017-09-17T08:50:56.254Z,1284
2017-09-17T09:16:44.178Z,2544
2017-09-17T09:17:45.111Z,2664
2017-09-17T09:18:46.031Z,2772
2017-09-17T09:29:08.196Z,2636
2017-09-17T09:32:10.898Z,2604
2017-09-17T09:34:12.578Z,2520
2017-09-17T10:00:32.177Z,2700
2017-09-17T10:05:36.040Z,2688
2017-09-17T10:12:41.218Z,2876
2017-09-17T10:14:42.846Z,2888
2017-09-17T10:16:44.574Z,2928
2017-09-17T10:34:11.523Z,2324
2017-09-17T10:39:15.234Z,2016
2017-09-17T10:41:16.958Z,2444
2017-09-17T10:43:18.663Z,2352
2017-09-17T10:48:22.221Z,1840
2017-09-17T10:49:22.992Z,1964
2017-09-17T10:50:23.694Z,2240
2017-09-17T10:51:24.392Z,2504
2017-09-17T10:52:25.215Z,2276
2017-09-17T10:53:25.980Z,2076
2017-09-17T10:54:26.709Z,2196
2017-09-17T10:55:27.476Z,2384
2017-09-17T10:56:28.202Z,2256
2017-09-17T10:57:28.876Z,2472
2017-09-17T10:58:29.618Z,2228
2017-09-17T10:59:30.376Z,2300
2017-09-17T11:00:31.815Z,2492
2017-09-17T11:01:32.469Z,2536
2017-09-17T11:02:33.194Z,2168
2017-09-17T11:03:33.982Z,2272
2017-09-17T11:04:35.961Z,2348
2017-09-17T11:05:36.368Z,2580
2017-09-17T11:06:38.901Z,2536
2017-09-17T11:07:39.178Z,2552
2017-09-17T11:08:39.880Z,2620
2017-09-17T11:09:40.800Z,2160
2017-09-17T11:10:41.552Z,1952
2017-09-17T11:11:42.262Z,2336
2017-09-17T11:12:43.293Z,2600
2017-09-17T11:13:43.997Z,2496
2017-09-17T11:14:44.772Z,2496
2017-09-17T11:15:45.641Z,2608
2017-09-17T11:18:01.927Z,2344
2017-09-17T11:19:02.947Z,2368
2017-09-17T11:20:03.900Z,2424
2017-09-17T11:21:04.634Z,2384
2017-09-17T11:22:05.365Z,2456
2017-09-17T11:23:06.188Z,2488
2017-09-17T11:24:07.115Z,2540
2017-09-17T11:25:08.230Z,2508
2017-09-17T11:26:08.984Z,2552
2017-09-17T11:27:09.899Z,2208
2017-09-17T11:28:10.708Z,1864
2017-09-17T11:29:11.422Z,2132
2017-09-17T11:30:12.197Z,1936
2017-09-17T11:31:12.912Z,2000
2017-09-17T11:32:13.747Z,1828
2017-09-17T11:33:14.667Z,2136
2017-09-17T11:34:15.429Z,1784
2017-09-17T11:35:16.946Z,1876
2017-09-17T11:36:17.632Z,1808
2017-09-17T11:37:18.386Z,2228
2017-09-17T11:38:19.162Z,2252
2017-09-17T11:39:19.920Z,1876
2017-09-17T11:40:20.647Z,1624
2017-09-17T11:41:21.656Z,1616
2017-09-17T11:42:22.625Z,1480
2017-09-17T11:43:23.846Z,1452
2017-09-17T11:44:24.505Z,1384
2017-09-17T11:46:40.764Z,1436
2017-09-17T11:47:41.493Z,1460
2017-09-17T11:48:42.449Z,1504
2017-09-17T11:49:43.247Z,1532
2017-09-17T11:50:44.038Z,1560
2017-09-17T11:51:44.778Z,1584
2017-09-17T11:52:45.571Z,1528
2017-09-17T11:53:51.693Z,1476
2017-09-17T11:54:52.364Z,1392
2017-09-17T11:55:53.615Z,1316
2017-09-17T11:56:59.382Z,1220
2017-09-17T11:58:00.120Z,1216
2017-09-17T11:59:01.092Z,1744
2017-09-17T12:00:01.814Z,1744
2017-09-17T12:01:02.691Z,1684
2017-09-17T12:02:03.595Z,1284
2017-09-17T12:03:04.686Z,1708
2017-09-17T12:04:05.433Z,1228
2017-09-17T12:05:06.227Z,1332
2017-09-17T12:06:07.282Z,1120
2017-09-17T12:07:08.029Z,1096
2017-09-17T12:08:08.802Z,1076
2017-09-17T12:09:10.221Z,1056
2017-09-17T12:10:10.955Z,1052
2017-09-17T12:11:11.755Z,1044
2017-09-17T12:12:12.603Z,1064
2017-09-17T12:13:13.398Z,1080
2017-09-17T12:14:14.156Z,1064
2017-09-17T12:15:14.869Z,1048
2017-09-17T12:17:31.145Z,1120
2017-09-17T12:18:31.977Z,1100
2017-09-17T12:19:32.745Z,1096
2017-09-17T12:20:33.503Z,1060
2017-09-17T12:21:34.237Z,1024
2017-09-17T12:22:34.979Z,1064
2017-09-17T12:23:35.749Z,1068
2017-09-17T12:24:36.620Z,1016
2017-09-17T12:25:37.606Z,992
2017-09-17T12:26:38.439Z,980
2017-09-17T12:27:39.591Z,968
2017-09-17T12:28:40.260Z,912
2017-09-17T12:29:41.005Z,876
2017-09-17T12:31:57.413Z,784
2017-09-17T12:32:58.278Z,744
2017-09-17T12:33:59.016Z,700
2017-09-17T12:34:59.727Z,664
2017-09-17T12:36:00.550Z,652
2017-09-17T12:37:01.282Z,640
2017-09-17T12:38:02.109Z,628
2017-09-17T12:39:02.899Z,608
2017-09-17T12:41:19.210Z,548
2017-09-17T12:42:19.904Z,524
2017-09-17T12:43:20.660Z,496
2017-09-17T12:44:21.381Z,460
2017-09-17T12:45:22.099Z,440
2017-09-17T12:46:22.835Z,412
2017-09-17T12:47:23.611Z,396
2017-09-17T12:48:24.403Z,376
2017-09-17T12:49:25.111Z,356
2017-09-17T12:50:26.025Z,344
2017-09-17T12:51:26.836Z,336
2017-09-17T12:52:27.817Z,332
2017-09-17T12:53:28.595Z,320
2017-09-17T12:54:29.369Z,304
2017-09-17T12:55:30.243Z,288
2017-09-17T12:56:30.966Z,276
2017-09-17T12:57:32.006Z,276
2017-09-17T12:58:32.740Z,280
2017-09-17T12:59:33.974Z,280
2017-09-17T13:00:34.779Z,284
2017-09-17T13:01:35.475Z,296
2017-09-17T13:02:36.286Z,304
2017-09-17T13:03:37.127Z,316
2017-09-17T13:04:38.164Z,324
2017-09-17T13:05:39.090Z,332
2017-09-17T13:06:39.841Z,336
2017-09-17T13:07:40.577Z,340
2017-09-17T13:08:41.297Z,336
2017-09-17T13:09:42.087Z,344
2017-09-17T13:10:42.940Z,360
2017-09-17T13:11:43.677Z,384
2017-09-17T13:12:44.442Z,416
2017-09-17T13:13:45.404Z,440
2017-09-17T13:14:51.590Z,472
2017-09-17T13:15:52.944Z,504
2017-09-17T13:16:53.629Z,524
2017-09-17T13:17:54.495Z,544
2017-09-17T13:18:55.287Z,568
2017-09-17T13:19:56.016Z,588
2017-09-17T13:20:56.743Z,596
2017-09-17T13:21:57.538Z,620
2017-09-17T13:22:58.299Z,640
2017-09-17T13:23:59.284Z,660
2017-09-17T13:25:00.061Z,684
2017-09-17T13:26:00.822Z,692
2017-09-17T13:27:01.642Z,700
2017-09-17T13:28:02.608Z,712
2017-09-17T13:29:03.452Z,732
2017-09-17T13:30:04.632Z,756
2017-09-17T13:31:05.610Z,780
2017-09-17T13:32:06.918Z,780
2017-09-17T13:33:07.681Z,744
2017-09-17T13:34:08.414Z,748
2017-09-17T13:35:09.290Z,748
2017-09-17T13:36:10.152Z,764
2017-09-17T13:37:10.839Z,788
2017-09-17T13:38:11.590Z,796
2017-09-17T13:39:12.401Z,800
2017-09-17T13:40:13.210Z,788
2017-09-17T13:41:14.006Z,784
2017-09-17T13:42:14.803Z,792
2017-09-17T13:43:15.830Z,804
2017-09-17T13:44:16.568Z,804
2017-09-17T13:45:17.607Z,812
2017-09-17T13:46:18.447Z,812
2017-09-17T13:47:19.211Z,804
2017-09-17T13:48:20.182Z,804
2017-09-17T13:49:20.893Z,816
2017-09-17T13:50:21.657Z,836
2017-09-17T13:51:22.376Z,840
2017-09-17T13:52:28.196Z,844
2017-09-17T13:53:29.131Z,848
2017-09-17T13:54:29.954Z,856
2017-09-17T13:55:30.892Z,868
2017-09-17T13:56:31.598Z,868
2017-09-17T13:57:32.412Z,868
2017-09-17T13:58:33.231Z,860
2017-09-17T13:59:33.919Z,852
2017-09-17T14:00:34.980Z,848
2017-09-17T14:04:06.786Z,840
2017-09-17T14:05:07.546Z,844
2017-09-17T14:06:08.427Z,836
2017-09-17T14:07:09.157Z,836
2017-09-17T14:08:10.669Z,836
2017-09-17T14:09:12.067Z,836
2017-09-17T14:10:13.167Z,848
2017-09-17T14:11:13.851Z,848
2017-09-17T14:12:14.773Z,844
2017-09-17T14:13:15.475Z,844
2017-09-17T14:14:16.262Z,836
2017-09-17T14:15:17.348Z,852
2017-09-17T14:16:18.525Z,1028
2017-09-17T14:17:24.265Z,1084
2017-09-17T14:18:25.674Z,1100
2017-09-17T14:19:26.392Z,1112
2017-09-17T14:20:27.165Z,1116
2017-09-17T14:21:27.964Z,1120
2017-09-17T14:22:28.768Z,1108
2017-09-17T14:23:29.485Z,1112
2017-09-17T14:24:30.273Z,1104
2017-09-17T14:25:31.071Z,1088
2017-09-17T14:26:31.975Z,1072
2017-09-17T14:27:32.727Z,1060
2017-09-17T14:28:33.769Z,1072
2017-09-17T14:29:34.411Z,1076
2017-09-17T14:30:35.403Z,1072
2017-09-17T14:31:36.111Z,1068
2017-09-17T14:32:38.069Z,1032
2017-09-17T14:33:38.766Z,1012
2017-09-17T14:34:39.620Z,996
2017-09-17T14:35:40.487Z,980
2017-09-17T14:36:41.280Z,952
2017-09-17T14:37:42.052Z,920
2017-09-17T14:38:43.160Z,884
2017-09-17T14:39:43.932Z,848
2017-09-17T14:40:44.794Z,848
2017-09-17T14:41:45.532Z,804
2017-09-17T14:42:46.367Z,720
2017-09-17T14:43:47.075Z,704
2017-09-17T14:44:47.808Z,696
2017-09-17T14:45:49.542Z,684
2017-09-17T14:46:50.261Z,684
2017-09-17T14:47:51.402Z,664
2017-09-17T14:48:52.132Z,648
2017-09-17T14:49:53.040Z,632
2017-09-17T14:50:53.835Z,616
2017-09-17T14:51:54.703Z,600
2017-09-17T14:52:55.440Z,588
2017-09-17T14:53:56.237Z,592
2017-09-17T14:54:56.975Z,600
2017-09-17T14:55:57.730Z,608
2017-09-17T14:56:58.749Z,612
2017-09-17T14:57:59.564Z,616
2017-09-17T14:59:00.484Z,604
2017-09-17T15:00:01.516Z,604
2017-09-17T15:02:17.790Z,608
2017-09-17T15:03:18.530Z,604
2017-09-17T15:04:19.264Z,596
2017-09-17T15:05:20.053Z,592
2017-09-17T15:06:20.768Z,592
2017-09-17T15:07:21.778Z,592
2017-09-17T15:08:22.478Z,608
2017-09-17T15:09:23.330Z,676
2017-09-17T15:10:24.079Z,608
2017-09-17T15:11:24.829Z,624
2017-09-17T15:12:25.731Z,612
2017-09-17T15:13:26.484Z,612
2017-09-17T15:14:27.215Z,620
2017-09-17T15:15:28.035Z,648
2017-09-17T15:16:28.797Z,640
2017-09-17T15:17:29.591Z,648
2017-09-17T15:18:30.360Z,636
2017-09-17T15:19:31.399Z,624
2017-09-17T15:20:32.725Z,612
2017-09-17T15:21:33.758Z,596
2017-09-17T15:22:34.537Z,584
2017-09-17T15:23:35.227Z,596
2017-09-17T15:24:36.182Z,596
2017-09-17T15:25:36.981Z,620
2017-09-17T15:26:37.745Z,608
2017-09-17T15:27:38.588Z,628
2017-09-17T15:28:39.771Z,608
2017-09-17T15:29:40.760Z,576
2017-09-17T15:30:41.974Z,580
2017-09-17T15:31:43.417Z,564
2017-09-17T15:32:44.573Z,564
2017-09-17T15:33:45.332Z,560
2017-09-17T15:34:46.172Z,552
2017-09-17T15:35:46.994Z,552
2017-09-17T15:36:47.716Z,552
2017-09-17T15:37:48.530Z,548
2017-09-17T15:38:49.352Z,544
2017-09-17T15:39:50.101Z,532
2017-09-17T15:40:50.823Z,524
2017-09-17T15:41:51.583Z,520
2017-09-17T15:42:52.289Z,512
2017-09-17T15:43:53.019Z,508
2017-09-17T15:44:53.744Z,500
2017-09-17T15:45:54.621Z,496
2017-09-17T15:46:55.326Z,492
2017-09-17T15:47:56.069Z,488
2017-09-17T15:48:56.959Z,484
2017-09-17T15:49:57.640Z,484
2017-09-17T15:50:58.367Z,476
2017-09-17T15:51:59.075Z,472
2017-09-17T15:52:59.842Z,468
2017-09-17T15:54:00.644Z,468
2017-09-17T15:55:01.397Z,464
2017-09-17T15:56:02.152Z,464
2017-09-17T15:57:02.858Z,456
2017-09-17T15:58:03.586Z,452
2017-09-17T15:59:04.370Z,452
2017-09-17T16:00:05.117Z,444
2017-09-17T16:01:05.908Z,432
2017-09-17T16:02:06.714Z,428
2017-09-17T16:03:07.415Z,424
2017-09-17T16:04:08.218Z,420
2017-09-17T16:05:09.037Z,412
2017-09-17T16:06:09.755Z,404
2017-09-17T16:07:10.487Z,400
2017-09-17T16:08:11.900Z,388
2017-09-17T16:09:13.046Z,380
2017-09-17T16:10:13.853Z,364
2017-09-17T16:11:14.532Z,356
2017-09-17T16:12:15.309Z,344
2017-09-17T16:13:16.043Z,340